createdAt,value
2022-11-21T00:01:23.103Z,14.63
2022-11-21T00:03:51.043Z,14.62
2022-11-21T00:06:19.555Z,14.62
2022-11-21T00:08:47.552Z,14.60
2022-11-21T00:11:15.921Z,14.60
2022-11-21T00:13:43.577Z,14.60
2022-11-21T00:16:14.471Z,14.59
2022-11-21T00:18:42.344Z,14.58
2022-11-21T00:21:16.137Z,14.57
2022-11-21T00:23:44.438Z,14.57
2022-11-21T00:26:14.086Z,14.55
2022-11-21T00:28:41.815Z,14.55
2022-11-21T00:31:10.006Z,14.55
2022-11-21T00:33:39.137Z,14.53
2022-11-21T00:36:08.578Z,14.53
2022-11-21T00:38:36.751Z,14.53
2022-11-21T00:41:05.182Z,14.52
2022-11-21T00:43:32.569Z,14.53
2022-11-21T00:46:02.658Z,14.51
2022-11-21T00:48:31.827Z,14.51
2022-11-21T00:51:00.859Z,14.49
2022-11-21T00:53:28.919Z,14.49
2022-11-21T00:55:56.566Z,14.48
2022-11-21T00:58:23.800Z,14.46
2022-11-21T01:00:51.441Z,14.47
2022-11-21T01:03:18.914Z,14.45
2022-11-21T01:05:46.604Z,14.45
2022-11-21T01:08:13.856Z,14.45
2022-11-21T01:10:41.467Z,14.45
2022-11-21T01:13:09.616Z,14.44
2022-11-21T01:15:37.119Z,14.43
2022-11-21T01:18:04.431Z,14.43
2022-11-21T01:20:32.402Z,14.44
2022-11-21T01:22:59.805Z,14.44
2022-11-21T01:25:27.331Z,14.43
2022-11-21T01:27:54.580Z,14.43
2022-11-21T01:30:22.120Z,14.43
2022-11-21T01:32:50.085Z,14.43
2022-11-21T01:35:18.544Z,14.42
2022-11-21T01:37:49.280Z,14.40
2022-11-21T01:40:17.049Z,14.40
2022-11-21T01:42:52.482Z,14.41
2022-11-21T01:45:52.211Z,14.41
2022-11-21T01:48:22.546Z,14.40
2022-11-21T01:50:50.592Z,14.39
2022-11-21T01:53:18.507Z,14.39
2022-11-21T01:55:46.147Z,14.38
2022-11-21T01:58:13.732Z,14.38
2022-11-21T02:00:43.420Z,14.37
2022-11-21T02:03:15.380Z,14.37
2022-11-21T02:05:43.436Z,14.36
2022-11-21T02:08:17.815Z,14.34
2022-11-21T02:10:58.226Z,14.35
2022-11-21T02:13:26.396Z,14.34
2022-11-21T02:15:54.888Z,14.33
2022-11-21T02:18:22.330Z,14.34
2022-11-21T02:20:57.420Z,14.32
2022-11-21T02:23:27.451Z,14.32
2022-11-21T02:25:55.268Z,14.33
2022-11-21T02:28:24.569Z,14.31
2022-11-21T02:30:52.383Z,14.31
2022-11-21T02:33:20.099Z,14.31
2022-11-21T02:36:01.875Z,14.29
2022-11-21T02:38:33.528Z,14.30
2022-11-21T02:41:15.149Z,14.29
2022-11-21T02:43:52.610Z,14.29
2022-11-21T02:46:20.567Z,14.29
2022-11-21T02:48:48.391Z,14.27
2022-11-21T02:51:15.964Z,14.26
2022-11-21T02:53:43.408Z,14.26
2022-11-21T02:56:10.979Z,14.26
2022-11-21T02:58:38.338Z,14.26
2022-11-21T03:01:06.014Z,14.25
2022-11-21T03:03:33.803Z,14.25
2022-11-21T03:06:01.548Z,14.23
2022-11-21T03:08:28.856Z,14.23
2022-11-21T03:10:56.544Z,14.22
2022-11-21T03:13:23.832Z,14.22
2022-11-21T03:15:52.004Z,14.22
2022-11-21T03:18:19.241Z,14.20
2022-11-21T03:20:46.917Z,14.21
2022-11-21T03:23:14.168Z,14.21
2022-11-21T03:25:41.776Z,14.21
2022-11-21T03:28:09.078Z,14.19
2022-11-21T03:30:36.763Z,14.19
2022-11-21T03:33:04.064Z,14.18
2022-11-21T03:35:31.592Z,14.18
2022-11-21T03:37:58.867Z,14.17
2022-11-21T03:40:26.414Z,14.17
2022-11-21T03:42:53.669Z,14.16
2022-11-21T03:45:21.209Z,14.16
2022-11-21T03:47:48.487Z,14.16
2022-11-21T03:50:18.918Z,14.14
2022-11-21T03:52:46.476Z,14.15
2022-11-21T03:55:15.232Z,14.14
2022-11-21T03:57:42.504Z,14.12
2022-11-21T04:00:10.681Z,14.13
2022-11-21T04:02:38.056Z,14.12
2022-11-21T04:05:05.823Z,14.12
2022-11-21T04:07:33.191Z,14.11
2022-11-21T04:10:00.804Z,14.10
2022-11-21T04:12:30.791Z,14.10
2022-11-21T04:14:59.187Z,14.10
2022-11-21T04:17:26.520Z,14.09
2022-11-21T04:19:54.079Z,14.09
2022-11-21T04:22:22.043Z,14.08
2022-11-21T04:24:49.588Z,14.07
2022-11-21T04:27:16.859Z,14.06
2022-11-21T04:29:44.804Z,14.06
2022-11-21T04:32:12.038Z,14.05
2022-11-21T04:34:39.665Z,14.05
2022-11-21T04:37:11.425Z,14.05
2022-11-21T04:39:39.315Z,14.04
2022-11-21T04:42:06.596Z,14.03
2022-11-21T04:44:34.166Z,14.02
2022-11-21T04:47:05.288Z,14.03
2022-11-21T04:49:33.473Z,14.03
2022-11-21T04:52:00.741Z,14.02
2022-11-21T04:54:28.508Z,14.01
2022-11-21T04:56:56.013Z,14.00
2022-11-21T04:59:23.586Z,13.99
2022-11-21T05:01:50.842Z,13.99
2022-11-21T05:04:18.487Z,13.99
2022-11-21T05:06:45.692Z,13.99
2022-11-21T05:09:13.248Z,13.98
2022-11-21T05:11:59.140Z,13.98
2022-11-21T05:14:27.285Z,13.96
2022-11-21T05:16:54.700Z,13.97
2022-11-21T05:19:22.276Z,13.96
2022-11-21T05:21:50.615Z,13.95
2022-11-21T05:24:18.267Z,13.96
2022-11-21T05:26:45.510Z,13.95
2022-11-21T05:29:13.362Z,13.94
2022-11-21T05:31:40.582Z,13.94
2022-11-21T05:34:09.989Z,13.93
2022-11-21T05:36:37.310Z,13.93
2022-11-21T05:39:05.271Z,13.92
2022-11-21T05:41:32.685Z,13.92
2022-11-21T05:44:00.316Z,13.91
2022-11-21T05:46:27.679Z,13.90
2022-11-21T05:48:55.662Z,13.90
2022-11-21T05:51:23.517Z,13.89
2022-11-21T05:53:51.081Z,13.89
2022-11-21T05:56:19.743Z,13.89
2022-11-21T05:58:47.457Z,13.89
2022-11-21T06:01:15.335Z,13.88
2022-11-21T06:03:43.356Z,13.89
2022-11-21T06:06:17.657Z,13.87
2022-11-21T06:08:47.446Z,13.87
2022-11-21T06:11:16.586Z,13.87
2022-11-21T06:13:44.418Z,13.86
2022-11-21T06:16:14.046Z,13.84
2022-11-21T06:18:43.685Z,13.85
2022-11-21T06:21:18.159Z,13.83
2022-11-21T06:23:46.856Z,13.84
2022-11-21T06:26:17.315Z,13.82
2022-11-21T06:28:45.698Z,13.82
2022-11-21T06:31:19.043Z,13.83
2022-11-21T06:33:47.298Z,13.83
2022-11-21T06:36:16.744Z,13.82
2022-11-21T06:38:45.643Z,13.81
2022-11-21T06:41:16.491Z,13.81
2022-11-21T06:43:44.600Z,13.80
2022-11-21T06:46:12.505Z,13.79
2022-11-21T06:48:41.057Z,13.79
2022-11-21T06:51:16.833Z,13.79
2022-11-21T06:53:44.454Z,13.78
2022-11-21T06:56:11.966Z,13.78
2022-11-21T06:58:39.506Z,13.77
2022-11-21T07:01:08.749Z,13.77
2022-11-21T07:03:37.395Z,13.77
2022-11-21T07:06:05.628Z,13.77
2022-11-21T07:08:35.978Z,13.77
2022-11-21T07:13:53.986Z,13.75
2022-11-21T07:16:21.276Z,13.76
2022-11-21T07:18:48.845Z,13.76
2022-11-21T07:21:16.141Z,13.76
2022-11-21T07:23:43.892Z,13.76
2022-11-21T07:26:11.296Z,13.74
2022-11-21T07:28:39.026Z,13.75
2022-11-21T07:31:12.879Z,13.74
2022-11-21T07:33:43.602Z,13.75
2022-11-21T07:36:12.488Z,13.74
2022-11-21T07:38:41.421Z,13.74
2022-11-21T07:41:09.745Z,13.73
2022-11-21T07:43:37.380Z,13.75
2022-11-21T07:46:05.098Z,13.75
2022-11-21T07:48:32.682Z,13.74
2022-11-21T07:51:03.491Z,13.74
2022-11-21T07:53:31.123Z,13.74
2022-11-21T07:55:59.763Z,13.75
2022-11-21T07:58:27.445Z,13.74
2022-11-21T08:00:54.781Z,13.74
2022-11-21T08:03:22.976Z,13.73
2022-11-21T08:05:50.300Z,13.76
2022-11-21T08:08:17.913Z,13.75
2022-11-21T08:10:46.948Z,13.76
2022-11-21T08:13:14.771Z,13.75
2022-11-21T08:15:42.069Z,13.74
2022-11-21T08:18:14.028Z,13.75
2022-11-21T08:20:42.767Z,13.73
2022-11-21T08:23:13.102Z,13.73
2022-11-21T08:25:42.152Z,13.73
2022-11-21T08:28:11.762Z,13.73
2022-11-21T08:30:40.044Z,13.72
2022-11-21T08:33:08.536Z,13.74
2022-11-21T08:35:37.970Z,13.71
2022-11-21T08:38:06.375Z,13.71
2022-11-21T08:40:34.665Z,13.72
2022-11-21T08:43:11.058Z,13.71
2022-11-21T08:45:39.598Z,13.72
2022-11-21T08:48:11.723Z,13.73
2022-11-21T08:50:39.273Z,13.74
2022-11-21T08:53:07.062Z,13.75
2022-11-21T08:55:34.454Z,13.75
2022-11-21T08:58:02.794Z,13.75
2022-11-21T09:00:30.049Z,13.73
2022-11-21T09:02:57.628Z,13.73
2022-11-21T09:05:24.947Z,13.72
2022-11-21T09:07:57.494Z,13.72
2022-11-21T09:10:26.239Z,13.73
2022-11-21T09:12:57.286Z,13.72
2022-11-21T09:15:43.215Z,13.72
2022-11-21T09:18:11.007Z,13.70
2022-11-21T09:20:41.235Z,13.70
2022-11-21T09:23:13.534Z,13.70
2022-11-21T09:25:41.819Z,13.70
2022-11-21T09:28:11.186Z,13.69
2022-11-21T09:30:39.665Z,13.68
2022-11-21T09:33:11.525Z,13.68
2022-11-21T09:35:39.128Z,13.68
2022-11-21T09:38:06.627Z,13.68
2022-11-21T09:40:35.225Z,13.68
2022-11-21T09:43:20.928Z,13.69
2022-11-21T09:45:50.701Z,13.69
2022-11-21T09:48:33.267Z,13.69
2022-11-21T09:51:07.523Z,13.70
2022-11-21T09:53:39.612Z,13.69
2022-11-21T09:56:19.975Z,13.70
2022-11-21T09:58:57.799Z,13.69
2022-11-21T10:01:25.598Z,13.69
2022-11-21T10:03:53.317Z,13.69
2022-11-21T10:06:27.120Z,13.68
2022-11-21T10:09:41.151Z,13.68
2022-11-21T10:12:38.445Z,13.69
2022-11-21T10:15:32.304Z,13.70
2022-11-21T10:18:29.286Z,13.70
2022-11-21T10:21:16.301Z,13.69
2022-11-21T10:24:09.131Z,13.69
2022-11-21T10:26:54.881Z,13.69
2022-11-21T10:29:26.853Z,13.69
2022-11-21T10:31:57.973Z,13.68
2022-11-21T10:34:31.027Z,13.69
2022-11-21T10:37:27.968Z,13.69
2022-11-21T10:39:56.687Z,13.70
2022-11-21T10:42:36.484Z,13.69
2022-11-21T10:45:16.777Z,13.69
2022-11-21T10:47:46.408Z,13.70
2022-11-21T10:50:39.249Z,13.70
2022-11-21T10:53:34.942Z,13.69
2022-11-21T10:56:07.644Z,13.69
2022-11-21T10:58:42.400Z,13.69
2022-11-21T11:01:21.162Z,13.70
2022-11-21T11:04:26.625Z,13.69
2022-11-21T11:06:53.428Z,13.69
2022-11-21T11:09:28.688Z,13.69
2022-11-21T11:12:47.110Z,13.69
2022-11-21T11:15:21.560Z,13.69
2022-11-21T11:18:07.409Z,13.68
2022-11-21T11:20:43.745Z,13.69
2022-11-21T11:23:20.171Z,13.69
2022-11-21T11:25:56.780Z,13.68
2022-11-21T11:28:25.519Z,13.68
2022-11-21T11:30:55.244Z,13.69
2022-11-21T11:33:35.995Z,13.67
2022-11-21T11:36:14.357Z,13.67
2022-11-21T11:38:47.123Z,13.67
2022-11-21T11:42:01.803Z,13.67
2022-11-21T11:45:15.496Z,13.67
2022-11-21T11:47:58.025Z,13.66
2022-11-21T11:50:43.175Z,13.67
2022-11-21T11:53:19.973Z,13.65
2022-11-21T11:55:53.028Z,13.65
2022-11-21T11:58:28.260Z,13.65
2022-11-21T12:01:01.889Z,13.64
2022-11-21T12:03:35.459Z,13.65
2022-11-21T12:06:17.905Z,13.65
2022-11-21T12:08:59.630Z,13.64
2022-11-21T12:12:06.641Z,13.63
2022-11-21T12:15:11.708Z,13.63
2022-11-21T12:17:48.408Z,13.63
2022-11-21T12:20:28.446Z,13.63
2022-11-21T12:22:56.743Z,13.61
2022-11-21T12:25:32.985Z,13.60
2022-11-21T12:28:02.265Z,13.61
2022-11-21T12:30:48.536Z,13.60
2022-11-21T12:33:22.711Z,13.60
2022-11-21T12:36:22.748Z,13.60
2022-11-21T12:38:53.072Z,13.60
2022-11-21T12:41:46.936Z,13.61
2022-11-21T12:44:36.376Z,13.60
2022-11-21T12:47:17.619Z,13.59
2022-11-21T12:50:33.731Z,13.60
2022-11-21T12:53:32.769Z,13.61
2022-11-21T12:56:13.025Z,13.60
2022-11-21T12:58:47.101Z,13.61
2022-11-21T13:01:23.560Z,13.59
2022-11-21T13:04:01.875Z,13.58
2022-11-21T13:06:33.861Z,13.57
2022-11-21T13:09:07.441Z,13.58
2022-11-21T13:12:13.584Z,13.57
2022-11-21T13:14:51.230Z,13.57
2022-11-21T13:17:22.233Z,13.57
2022-11-21T13:19:56.258Z,13.57
2022-11-21T13:22:35.399Z,13.56
2022-11-21T13:25:30.584Z,13.56
2022-11-21T13:28:19.470Z,13.56
2022-11-21T13:30:58.560Z,13.56
2022-11-21T13:33:35.523Z,13.56
2022-11-21T13:36:13.031Z,13.55
2022-11-21T13:38:55.337Z,13.54
2022-11-21T13:41:53.720Z,13.53
2022-11-21T13:44:33.038Z,13.54
2022-11-21T13:47:20.565Z,13.53
2022-11-21T13:49:57.028Z,13.52
2022-11-21T13:53:01.480Z,13.51
2022-11-21T13:56:06.243Z,13.52
2022-11-21T13:58:43.505Z,13.52
2022-11-21T14:01:54.719Z,13.50
2022-11-21T14:04:52.656Z,13.51
2022-11-21T14:07:26.605Z,13.50
2022-11-21T14:09:57.245Z,13.49
2022-11-21T14:12:33.683Z,13.49
2022-11-21T14:15:02.885Z,13.49
2022-11-21T14:17:47.358Z,13.49
2022-11-21T14:20:25.006Z,13.49
2022-11-21T14:22:58.507Z,13.49
2022-11-21T14:25:35.904Z,13.49
2022-11-21T14:28:06.442Z,13.48
2022-11-21T14:30:37.607Z,13.49
2022-11-21T14:33:23.947Z,13.48
2022-11-21T14:36:07.443Z,13.48
2022-11-21T14:39:02.480Z,13.48
2022-11-21T14:41:38.982Z,13.48
2022-11-21T14:44:15.323Z,13.47
2022-11-21T14:46:43.756Z,13.46
2022-11-21T14:49:16.968Z,13.47
2022-11-21T14:52:01.405Z,13.46
2022-11-21T14:54:59.907Z,13.46
2022-11-21T14:57:34.434Z,13.46
2022-11-21T15:00:05.534Z,13.46
2022-11-21T15:02:34.788Z,13.44
2022-11-21T15:05:05.148Z,13.45
2022-11-21T15:07:41.232Z,13.45
2022-11-21T15:10:32.577Z,13.45
2022-11-21T15:13:07.005Z,13.45
2022-11-21T15:15:44.478Z,13.45
2022-11-21T15:18:28.541Z,13.44
2022-11-21T15:21:00.100Z,13.45
2022-11-21T15:23:34.473Z,13.44
2022-11-21T15:26:02.670Z,13.44
2022-11-21T15:28:31.721Z,13.45
2022-11-21T15:31:15.481Z,13.44
2022-11-21T15:37:16.350Z,13.44
2022-11-21T15:39:50.133Z,13.44
2022-11-21T15:42:36.222Z,13.61
2022-11-21T15:45:22.867Z,14.02
2022-11-21T15:47:53.008Z,14.20
2022-11-21T15:50:24.077Z,14.38
2022-11-21T15:52:53.155Z,14.51
2022-11-21T15:55:24.793Z,14.59
2022-11-21T15:57:52.066Z,14.72
2022-11-21T16:00:19.908Z,14.77
2022-11-21T16:02:47.569Z,14.80
2022-11-21T16:05:15.927Z,14.85
2022-11-21T16:07:43.296Z,14.92
2022-11-21T16:10:19.712Z,14.96
2022-11-21T16:12:50.224Z,15.00
2022-11-21T16:15:18.118Z,15.03
2022-11-21T16:17:45.787Z,15.08
2022-11-21T16:20:15.327Z,15.11
2022-11-21T16:22:47.107Z,15.16
2022-11-21T16:25:15.954Z,15.19
2022-11-21T16:27:44.079Z,15.24
2022-11-21T16:30:12.350Z,15.26
2022-11-21T16:32:39.876Z,15.31
2022-11-21T16:35:08.093Z,15.36
2022-11-21T16:37:35.405Z,15.37
2022-11-21T16:40:03.616Z,15.42
2022-11-21T16:42:31.065Z,15.46
2022-11-21T16:44:58.627Z,15.51
2022-11-21T16:47:25.968Z,15.54
2022-11-21T16:49:53.535Z,15.58
2022-11-21T16:52:20.821Z,15.60
2022-11-21T16:54:48.370Z,15.59
2022-11-21T16:57:15.600Z,15.61
2022-11-21T16:59:43.512Z,15.67
2022-11-21T17:02:11.178Z,15.67
2022-11-21T17:04:38.839Z,15.69
2022-11-21T17:07:06.203Z,15.71
2022-11-21T17:09:33.776Z,15.72
2022-11-21T17:12:01.178Z,15.74
2022-11-21T17:14:29.140Z,15.77
2022-11-21T17:16:59.095Z,15.76
2022-11-21T17:19:26.875Z,15.77
2022-11-21T17:21:54.230Z,15.78
2022-11-21T17:24:21.910Z,15.79
2022-11-21T17:26:49.268Z,15.82
2022-11-21T17:29:17.000Z,15.84
2022-11-21T17:31:44.298Z,15.83
2022-11-21T17:34:12.105Z,15.84
2022-11-21T17:36:39.435Z,15.86
2022-11-21T17:39:07.069Z,15.85
2022-11-21T17:41:34.492Z,15.84
2022-11-21T17:44:02.202Z,15.87
2022-11-21T17:46:29.526Z,15.89
2022-11-21T17:48:59.133Z,15.92
2022-11-21T17:51:32.319Z,15.91
2022-11-21T17:54:01.038Z,15.92
2022-11-21T17:56:30.926Z,15.93
2022-11-21T17:58:59.045Z,15.93
2022-11-21T18:01:26.643Z,15.94
2022-11-21T18:03:59.912Z,15.92
2022-11-21T18:06:29.836Z,15.97
2022-11-21T18:08:58.616Z,15.94
2022-11-21T18:11:36.027Z,15.98
2022-11-21T18:14:07.909Z,15.99
2022-11-21T18:16:35.699Z,16.00
2022-11-21T18:19:03.550Z,16.02
2022-11-21T18:21:33.572Z,16.00
2022-11-21T18:24:01.165Z,16.02
2022-11-21T18:26:31.457Z,16.01
2022-11-21T18:29:28.738Z,16.03
2022-11-21T18:31:49.187Z,16.03
2022-11-21T18:34:16.775Z,16.05
2022-11-21T18:36:44.216Z,16.06
2022-11-21T18:39:15.112Z,16.06
2022-11-21T18:41:43.679Z,16.07
2022-11-21T18:44:14.567Z,16.09
2022-11-21T18:46:43.232Z,16.09
2022-11-21T18:49:11.346Z,16.06
2022-11-21T18:51:38.638Z,16.07
2022-11-21T18:54:08.519Z,16.09
2022-11-21T18:56:37.573Z,16.09
2022-11-21T18:59:06.428Z,16.09
2022-11-21T19:01:36.563Z,16.09
2022-11-21T19:04:05.270Z,16.07
2022-11-21T19:06:32.724Z,16.09
2022-11-21T19:09:00.247Z,16.08
2022-11-21T19:11:29.419Z,16.09
2022-11-21T19:13:59.217Z,16.12
2022-11-21T19:16:30.509Z,16.13
2022-11-21T19:19:32.383Z,16.13
2022-11-21T19:21:48.811Z,16.17
2022-11-21T19:24:16.956Z,16.16
2022-11-21T19:26:44.377Z,16.12
2022-11-21T19:29:12.105Z,16.16
2022-11-21T19:31:45.121Z,16.17
2022-11-21T19:34:14.462Z,16.20
2022-11-21T19:36:42.580Z,16.20
2022-11-21T19:39:10.832Z,16.18
2022-11-21T19:41:39.092Z,16.23
2022-11-21T19:44:06.665Z,16.22
2022-11-21T19:46:38.678Z,16.24
2022-11-21T19:49:07.688Z,16.28
2022-11-21T19:51:41.256Z,16.26
2022-11-21T19:54:11.892Z,16.24
2022-11-21T19:56:39.528Z,16.26
2022-11-21T19:59:07.313Z,16.28
2022-11-21T20:01:35.218Z,16.28
2022-11-21T20:04:05.118Z,16.27
2022-11-21T20:06:37.951Z,16.27
2022-11-21T20:09:08.957Z,16.24
2022-11-21T20:11:38.405Z,16.29
2022-11-21T20:14:06.121Z,16.29
2022-11-21T20:16:39.277Z,16.31
2022-11-21T20:19:09.778Z,16.32
2022-11-21T20:21:38.197Z,16.33
2022-11-21T20:24:06.806Z,16.32
2022-11-21T20:26:34.879Z,16.34
2022-11-21T20:29:04.013Z,16.34
2022-11-21T20:31:37.104Z,16.31
2022-11-21T20:34:07.766Z,16.32
2022-11-21T20:36:36.710Z,16.32
2022-11-21T20:39:07.108Z,16.29
2022-11-21T20:41:36.362Z,16.29
2022-11-21T20:47:00.831Z,16.31
2022-11-21T20:49:28.789Z,16.29
2022-11-21T20:54:44.424Z,16.29
2022-11-21T20:57:15.234Z,16.28
2022-11-21T20:59:43.417Z,16.29
2022-11-21T21:02:14.916Z,16.27
2022-11-21T21:04:42.608Z,16.26
2022-11-21T21:07:10.270Z,16.24
2022-11-21T21:09:38.140Z,16.25
2022-11-21T21:12:05.752Z,16.23
2022-11-21T21:14:33.525Z,16.23
2022-11-21T21:17:00.925Z,16.23
2022-11-21T21:19:29.045Z,16.21
2022-11-21T21:21:56.657Z,16.20
2022-11-21T21:24:24.347Z,16.20
2022-11-21T21:26:52.552Z,16.20
2022-11-21T21:29:21.393Z,16.18
2022-11-21T21:31:52.112Z,16.20
2022-11-21T21:34:22.329Z,16.18
2022-11-21T21:36:50.636Z,16.20
2022-11-21T21:39:18.212Z,16.18
2022-11-21T21:41:47.116Z,16.20
2022-11-21T21:44:16.083Z,16.20
2022-11-21T21:46:43.619Z,16.21
2022-11-21T21:49:11.863Z,16.19
2022-11-21T21:51:39.981Z,16.18
2022-11-21T21:54:14.845Z,16.18
2022-11-21T21:56:42.179Z,16.20
2022-11-21T21:59:09.715Z,16.19
2022-11-21T22:01:37.085Z,16.17
2022-11-21T22:04:06.221Z,16.17
2022-11-21T22:06:34.568Z,16.17
2022-11-21T22:09:02.979Z,16.18
2022-11-21T22:11:32.711Z,16.18
2022-11-21T22:14:02.771Z,16.18
2022-11-21T22:16:31.099Z,16.17
2022-11-21T22:18:59.245Z,16.18
2022-11-21T22:21:34.601Z,16.16
2022-11-21T22:26:52.638Z,16.15
2022-11-21T22:29:20.197Z,16.13
2022-11-21T22:31:47.510Z,16.14
2022-11-21T22:34:15.754Z,16.14
2022-11-21T22:36:44.617Z,16.13
2022-11-21T22:39:12.288Z,16.13
2022-11-21T22:41:39.667Z,16.14
2022-11-21T22:44:07.191Z,16.12
2022-11-21T22:46:34.965Z,16.13
2022-11-21T22:49:03.634Z,16.13
2022-11-21T22:51:30.922Z,16.13
2022-11-21T22:53:58.562Z,16.11
2022-11-21T22:56:26.986Z,16.11
2022-11-21T22:58:54.833Z,16.12
2022-11-21T23:01:24.744Z,16.13
2022-11-21T23:03:53.061Z,16.11
2022-11-21T23:06:25.186Z,16.12
2022-11-21T23:08:54.143Z,16.12
2022-11-21T23:11:27.784Z,16.12
2022-11-21T23:13:56.739Z,16.11
2022-11-21T23:16:24.871Z,16.13
2022-11-21T23:18:53.798Z,16.13
2022-11-21T23:21:21.559Z,16.15
2022-11-21T23:23:49.157Z,16.13
2022-11-21T23:26:16.790Z,16.14
2022-11-21T23:28:44.442Z,16.16
2022-11-21T23:31:11.792Z,16.15
2022-11-21T23:33:39.519Z,16.18
2022-11-21T23:36:07.042Z,16.20
2022-11-21T23:38:34.714Z,16.18
2022-11-21T23:41:02.052Z,16.17
2022-11-21T23:43:29.573Z,16.17
2022-11-21T23:45:57.209Z,16.16
2022-11-21T23:48:24.914Z,16.18
2022-11-21T23:50:52.327Z,16.18
2022-11-21T23:53:20.970Z,16.18
2022-11-21T23:55:48.536Z,16.18
2022-11-21T23:58:16.988Z,16.19
